sensor_id;sensor_type;location;lat;lon;timestamp;temperature;humidity
4425;DHT22;2225;53.568;13.266;2022-12-26T00:01:20;12.30;99.60
4425;DHT22;2225;53.568;13.266;2022-12-26T00:03:50;12.30;99.50
4425;DHT22;2225;53.568;13.266;2022-12-26T00:06:19;12.30;99.40
4425;DHT22;2225;53.568;13.266;2022-12-26T00:08:47;12.40;99.50
4425;DHT22;2225;53.568;13.266;2022-12-26T00:11:15;12.40;99.40
4425;DHT22;2225;53.568;13.266;2022-12-26T00:13:44;12.40;99.40
4425;DHT22;2225;53.568;13.266;2022-12-26T00:16:18;12.40;99.40
4425;DHT22;2225;53.568;13.266;2022-12-26T00:18:46;12.40;99.40
4425;DHT22;2225;53.568;13.266;2022-12-26T00:21:14;12.50;99.40
4425;DHT22;2225;53.568;13.266;2022-12-26T00:23:42;12.50;99.40
4425;DHT22;2225;53.568;13.266;2022-12-26T00:26:20;12.50;99.40
4425;DHT22;2225;53.568;13.266;2022-12-26T00:28:49;12.50;99.40
4425;DHT22;2225;53.568;13.266;2022-12-26T00:31:21;12.60;99.40
4425;DHT22;2225;53.568;13.266;2022-12-26T00:33:50;12.60;99.40
4425;DHT22;2225;53.568;13.266;2022-12-26T00:36:20;12.50;99.30
4425;DHT22;2225;53.568;13.266;2022-12-26T00:38:49;12.60;99.30
4425;DHT22;2225;53.568;13.266;2022-12-26T00:41:18;12.60;99.30
4425;DHT22;2225;53.568;13.266;2022-12-26T00:43:46;12.60;99.30
4425;DHT22;2225;53.568;13.266;2022-12-26T00:46:13;12.60;99.30
4425;DHT22;2225;53.568;13.266;2022-12-26T00:48:41;12.60;99.30
4425;DHT22;2225;53.568;13.266;2022-12-26T00:51:08;12.70;99.30
4425;DHT22;2225;53.568;13.266;2022-12-26T00:53:35;12.70;99.20
4425;DHT22;2225;53.568;13.266;2022-12-26T00:56:03;12.70;99.20
4425;DHT22;2225;53.568;13.266;2022-12-26T00:58:30;12.70;99.20
4425;DHT22;2225;53.568;13.266;2022-12-26T01:01:18;12.70;99.20
4425;DHT22;2225;53.568;13.266;2022-12-26T01:03:48;12.70;99.30
4425;DHT22;2225;53.568;13.266;2022-12-26T01:06:16;12.70;99.30
4425;DHT22;2225;53.568;13.266;2022-12-26T01:08:43;12.70;99.50
4425;DHT22;2225;53.568;13.266;2022-12-26T01:11:12;12.80;99.40
4425;DHT22;2225;53.568;13.266;2022-12-26T01:13:41;12.80;99.40
4425;DHT22;2225;53.568;13.266;2022-12-26T01:16:08;12.80;99.40
4425;DHT22;2225;53.568;13.266;2022-12-26T01:18:35;12.80;99.30
4425;DHT22;2225;53.568;13.266;2022-12-26T01:21:06;12.80;99.30
4425;DHT22;2225;53.568;13.266;2022-12-26T01:23:33;12.80;99.40
4425;DHT22;2225;53.568;13.266;2022-12-26T01:26:00;12.80;99.30
4425;DHT22;2225;53.568;13.266;2022-12-26T01:28:48;12.90;99.40
4425;DHT22;2225;53.568;13.266;2022-12-26T01:31:17;12.90;99.40
4425;DHT22;2225;53.568;13.266;2022-12-26T01:33:45;12.90;99.40
4425;DHT22;2225;53.568;13.266;2022-12-26T01:36:12;12.90;99.40
4425;DHT22;2225;53.568;13.266;2022-12-26T01:38:39;12.90;99.40
4425;DHT22;2225;53.568;13.266;2022-12-26T01:41:06;12.90;99.50
4425;DHT22;2225;53.568;13.266;2022-12-26T01:43:52;13.00;99.50
4425;DHT22;2225;53.568;13.266;2022-12-26T01:46:28;13.00;99.60
4425;DHT22;2225;53.568;13.266;2022-12-26T01:49:25;13.00;99.60
4425;DHT22;2225;53.568;13.266;2022-12-26T01:52:01;13.00;99.70
4425;DHT22;2225;53.568;13.266;2022-12-26T01:54:31;13.00;99.80
4425;DHT22;2225;53.568;13.266;2022-12-26T01:57:23;13.00;99.90
4425;DHT22;2225;53.568;13.266;2022-12-26T01:59:54;13.00;99.90
4425;DHT22;2225;53.568;13.266;2022-12-26T02:02:26;13.10;99.90
4425;DHT22;2225;53.568;13.266;2022-12-26T02:04:55;13.10;99.90
4425;DHT22;2225;53.568;13.266;2022-12-26T02:07:43;13.10;99.90
4425;DHT22;2225;53.568;13.266;2022-12-26T02:10:14;13.10;99.90
4425;DHT22;2225;53.568;13.266;2022-12-26T02:12:45;13.10;99.90
4425;DHT22;2225;53.568;13.266;2022-12-26T02:15:16;13.10;99.90
4425;DHT22;2225;53.568;13.266;2022-12-26T02:17:45;13.20;99.90
4425;DHT22;2225;53.568;13.266;2022-12-26T02:20:20;13.20;99.90
4425;DHT22;2225;53.568;13.266;2022-12-26T02:28:48;13.20;99.90
4425;DHT22;2225;53.568;13.266;2022-12-26T02:31:47;13.20;99.90
4425;DHT22;2225;53.568;13.266;2022-12-26T02:34:34;13.20;99.90
4425;DHT22;2225;53.568;13.266;2022-12-26T02:43:55;13.20;99.90
4425;DHT22;2225;53.568;13.266;2022-12-26T02:50:36;13.30;99.90
4425;DHT22;2225;53.568;13.266;2022-12-26T02:53:43;13.30;99.90
4425;DHT22;2225;53.568;13.266;2022-12-26T02:56:38;13.30;99.90
4425;DHT22;2225;53.568;13.266;2022-12-26T02:59:44;13.30;99.90
4425;DHT22;2225;53.568;13.266;2022-12-26T03:02:46;13.30;99.80
4425;DHT22;2225;53.568;13.266;2022-12-26T03:05:41;13.30;99.70
4425;DHT22;2225;53.568;13.266;2022-12-26T03:11:47;13.30;99.70
4425;DHT22;2225;53.568;13.266;2022-12-26T03:14:44;13.30;99.70
4425;DHT22;2225;53.568;13.266;2022-12-26T03:20:02;13.20;99.60
4425;DHT22;2225;53.568;13.266;2022-12-26T03:28:30;13.20;99.60
4425;DHT22;2225;53.568;13.266;2022-12-26T03:31:00;13.20;99.50
4425;DHT22;2225;53.568;13.266;2022-12-26T03:33:33;13.20;99.50
4425;DHT22;2225;53.568;13.266;2022-12-26T03:39:08;13.30;99.50
4425;DHT22;2225;53.568;13.266;2022-12-26T03:42:04;13.30;99.40
4425;DHT22;2225;53.568;13.266;2022-12-26T03:45:02;13.20;99.40
4425;DHT22;2225;53.568;13.266;2022-12-26T03:48:17;13.30;99.30
4425;DHT22;2225;53.568;13.266;2022-12-26T03:51:37;13.20;99.30
4425;DHT22;2225;53.568;13.266;2022-12-26T03:54:32;13.20;99.30
4425;DHT22;2225;53.568;13.266;2022-12-26T03:57:35;13.20;99.30
4425;DHT22;2225;53.568;13.266;2022-12-26T04:00:28;13.20;99.30
4425;DHT22;2225;53.568;13.266;2022-12-26T04:03:15;13.20;99.20
4425;DHT22;2225;53.568;13.266;2022-12-26T04:06:03;13.20;99.20
4425;DHT22;2225;53.568;13.266;2022-12-26T04:09:00;13.20;99.20
4425;DHT22;2225;53.568;13.266;2022-12-26T04:11:59;13.20;99.20
4425;DHT22;2225;53.568;13.266;2022-12-26T04:14:57;13.20;99.10
4425;DHT22;2225;53.568;13.266;2022-12-26T04:17:55;13.20;99.10
4425;DHT22;2225;53.568;13.266;2022-12-26T04:20:51;13.20;99.10
4425;DHT22;2225;53.568;13.266;2022-12-26T04:23:46;13.10;99.10
4425;DHT22;2225;53.568;13.266;2022-12-26T04:26:39;13.20;99.00
4425;DHT22;2225;53.568;13.266;2022-12-26T04:29:28;13.10;99.10
4425;DHT22;2225;53.568;13.266;2022-12-26T04:32:44;13.20;99.10
4425;DHT22;2225;53.568;13.266;2022-12-26T04:38:48;13.20;98.70
4425;DHT22;2225;53.568;13.266;2022-12-26T04:41:38;13.10;98.80
4425;DHT22;2225;53.568;13.266;2022-12-26T04:44:26;13.10;98.80
4425;DHT22;2225;53.568;13.266;2022-12-26T04:46:55;13.10;98.80
4425;DHT22;2225;53.568;13.266;2022-12-26T04:49:23;13.10;98.80
4425;DHT22;2225;53.568;13.266;2022-12-26T04:52:11;13.10;98.70
4425;DHT22;2225;53.568;13.266;2022-12-26T04:54:39;13.10;98.60
4425;DHT22;2225;53.568;13.266;2022-12-26T04:57:07;13.10;98.50
4425;DHT22;2225;53.568;13.266;2022-12-26T04:59:34;13.10;98.60
4425;DHT22;2225;53.568;13.266;2022-12-26T05:02:00;13.00;98.50
4425;DHT22;2225;53.568;13.266;2022-12-26T05:04:46;13.00;98.60
4425;DHT22;2225;53.568;13.266;2022-12-26T05:07:33;13.00;98.60
4425;DHT22;2225;53.568;13.266;2022-12-26T05:10:22;13.00;98.60
4425;DHT22;2225;53.568;13.266;2022-12-26T05:12:52;13.00;98.50
4425;DHT22;2225;53.568;13.266;2022-12-26T05:15:20;13.00;98.60
4425;DHT22;2225;53.568;13.266;2022-12-26T05:17:47;13.00;98.50
4425;DHT22;2225;53.568;13.266;2022-12-26T05:20:33;13.00;98.60
4425;DHT22;2225;53.568;13.266;2022-12-26T05:23:32;13.00;98.50
4425;DHT22;2225;53.568;13.266;2022-12-26T05:26:21;12.90;98.20
4425;DHT22;2225;53.568;13.266;2022-12-26T05:29:07;12.90;98.20
4425;DHT22;2225;53.568;13.266;2022-12-26T05:31:34;12.90;98.30
4425;DHT22;2225;53.568;13.266;2022-12-26T05:34:04;12.80;98.30
4425;DHT22;2225;53.568;13.266;2022-12-26T05:36:37;12.80;98.30
4425;DHT22;2225;53.568;13.266;2022-12-26T05:39:07;12.80;98.30
4425;DHT22;2225;53.568;13.266;2022-12-26T05:41:35;12.70;98.40
4425;DHT22;2225;53.568;13.266;2022-12-26T05:44:03;12.70;98.30
4425;DHT22;2225;53.568;13.266;2022-12-26T05:46:30;12.70;98.30
4425;DHT22;2225;53.568;13.266;2022-12-26T05:48:57;12.70;98.30
4425;DHT22;2225;53.568;13.266;2022-12-26T05:51:24;12.70;98.20
4425;DHT22;2225;53.568;13.266;2022-12-26T05:53:51;12.60;98.30
4425;DHT22;2225;53.568;13.266;2022-12-26T05:56:19;12.60;98.40
4425;DHT22;2225;53.568;13.266;2022-12-26T05:58:47;12.60;98.40
4425;DHT22;2225;53.568;13.266;2022-12-26T06:01:20;12.60;98.50
4425;DHT22;2225;53.568;13.266;2022-12-26T06:03:49;12.60;98.80
4425;DHT22;2225;53.568;13.266;2022-12-26T06:06:18;12.60;98.50
4425;DHT22;2225;53.568;13.266;2022-12-26T06:08:50;12.60;98.50
4425;DHT22;2225;53.568;13.266;2022-12-26T06:11:19;12.60;98.50
4425;DHT22;2225;53.568;13.266;2022-12-26T06:13:46;12.50;98.50
4425;DHT22;2225;53.568;13.266;2022-12-26T06:16:15;12.50;98.50
4425;DHT22;2225;53.568;13.266;2022-12-26T06:18:43;12.50;98.50
4425;DHT22;2225;53.568;13.266;2022-12-26T06:21:12;12.50;98.50
4425;DHT22;2225;53.568;13.266;2022-12-26T06:23:40;12.50;98.60
4425;DHT22;2225;53.568;13.266;2022-12-26T06:26:08;12.50;98.70
4425;DHT22;2225;53.568;13.266;2022-12-26T06:28:36;12.50;98.70
4425;DHT22;2225;53.568;13.266;2022-12-26T06:31:12;12.50;98.70
4425;DHT22;2225;53.568;13.266;2022-12-26T06:33:41;12.50;98.70
4425;DHT22;2225;53.568;13.266;2022-12-26T06:36:11;12.50;98.70
4425;DHT22;2225;53.568;13.266;2022-12-26T06:38:40;12.50;98.80
4425;DHT22;2225;53.568;13.266;2022-12-26T06:41:10;12.50;98.80
4425;DHT22;2225;53.568;13.266;2022-12-26T06:43:38;12.40;98.80
4425;DHT22;2225;53.568;13.266;2022-12-26T06:46:06;12.40;98.80
4425;DHT22;2225;53.568;13.266;2022-12-26T06:48:35;12.50;98.90
4425;DHT22;2225;53.568;13.266;2022-12-26T06:51:08;12.50;98.80
4425;DHT22;2225;53.568;13.266;2022-12-26T06:53:37;12.50;98.80
4425;DHT22;2225;53.568;13.266;2022-12-26T06:56:10;12.50;98.80
4425;DHT22;2225;53.568;13.266;2022-12-26T06:58:39;12.50;98.80
4425;DHT22;2225;53.568;13.266;2022-12-26T07:01:14;12.50;98.80
4425;DHT22;2225;53.568;13.266;2022-12-26T07:03:43;12.50;98.70
4425;DHT22;2225;53.568;13.266;2022-12-26T07:06:28;12.40;98.70
4425;DHT22;2225;53.568;13.266;2022-12-26T07:09:02;12.50;98.50
4425;DHT22;2225;53.568;13.266;2022-12-26T07:11:36;12.40;98.50
4425;DHT22;2225;53.568;13.266;2022-12-26T07:14:05;12.40;98.60
4425;DHT22;2225;53.568;13.266;2022-12-26T07:16:36;12.40;98.50
4425;DHT22;2225;53.568;13.266;2022-12-26T07:19:05;12.40;98.40
4425;DHT22;2225;53.568;13.266;2022-12-26T07:21:33;12.40;98.30
4425;DHT22;2225;53.568;13.266;2022-12-26T07:24:08;12.30;98.40
4425;DHT22;2225;53.568;13.266;2022-12-26T07:26:40;12.30;98.40
4425;DHT22;2225;53.568;13.266;2022-12-26T07:29:09;12.30;98.40
4425;DHT22;2225;53.568;13.266;2022-12-26T07:31:38;12.30;98.80
4425;DHT22;2225;53.568;13.266;2022-12-26T07:34:05;12.30;98.40
4425;DHT22;2225;53.568;13.266;2022-12-26T07:36:32;12.30;98.40
4425;DHT22;2225;53.568;13.266;2022-12-26T07:38:59;12.30;98.40
4425;DHT22;2225;53.568;13.266;2022-12-26T07:41:27;12.30;98.40
4425;DHT22;2225;53.568;13.266;2022-12-26T07:44:13;12.30;98.50
4425;DHT22;2225;53.568;13.266;2022-12-26T07:46:40;12.30;98.50
4425;DHT22;2225;53.568;13.266;2022-12-26T07:49:07;12.20;98.50
4425;DHT22;2225;53.568;13.266;2022-12-26T07:51:36;12.20;98.60
4425;DHT22;2225;53.568;13.266;2022-12-26T07:54:03;12.20;98.60
4425;DHT22;2225;53.568;13.266;2022-12-26T07:56:37;12.20;98.60
4425;DHT22;2225;53.568;13.266;2022-12-26T07:59:04;12.30;98.70
4425;DHT22;2225;53.568;13.266;2022-12-26T08:01:31;12.30;98.70
4425;DHT22;2225;53.568;13.266;2022-12-26T08:03:58;12.30;98.80
4425;DHT22;2225;53.568;13.266;2022-12-26T08:06:26;12.30;98.80
4425;DHT22;2225;53.568;13.266;2022-12-26T08:08:53;12.30;98.80
4425;DHT22;2225;53.568;13.266;2022-12-26T08:11:21;12.30;98.70
4425;DHT22;2225;53.568;13.266;2022-12-26T08:13:50;12.40;98.80
4425;DHT22;2225;53.568;13.266;2022-12-26T08:16:18;12.40;98.80
4425;DHT22;2225;53.568;13.266;2022-12-26T08:18:45;12.40;98.80
4425;DHT22;2225;53.568;13.266;2022-12-26T08:21:12;12.40;98.80
4425;DHT22;2225;53.568;13.266;2022-12-26T08:23:39;12.50;98.80
4425;DHT22;2225;53.568;13.266;2022-12-26T08:26:09;12.50;98.80
4425;DHT22;2225;53.568;13.266;2022-12-26T08:28:41;12.50;98.80
4425;DHT22;2225;53.568;13.266;2022-12-26T08:31:09;12.50;98.80
4425;DHT22;2225;53.568;13.266;2022-12-26T08:33:37;12.60;98.80
4425;DHT22;2225;53.568;13.266;2022-12-26T08:36:05;12.60;98.80
4425;DHT22;2225;53.568;13.266;2022-12-26T08:38:34;12.60;98.80
4425;DHT22;2225;53.568;13.266;2022-12-26T08:41:02;12.60;98.90
4425;DHT22;2225;53.568;13.266;2022-12-26T08:43:29;12.60;98.90
4425;DHT22;2225;53.568;13.266;2022-12-26T08:46:17;12.70;98.90
4425;DHT22;2225;53.568;13.266;2022-12-26T08:48:45;12.70;98.90
4425;DHT22;2225;53.568;13.266;2022-12-26T08:51:19;12.70;98.90
4425;DHT22;2225;53.568;13.266;2022-12-26T08:53:48;12.70;98.90
4425;DHT22;2225;53.568;13.266;2022-12-26T08:56:18;12.70;98.90
4425;DHT22;2225;53.568;13.266;2022-12-26T08:58:47;12.70;98.90
4425;DHT22;2225;53.568;13.266;2022-12-26T09:01:16;12.80;98.90
4425;DHT22;2225;53.568;13.266;2022-12-26T09:03:45;12.80;98.90
4425;DHT22;2225;53.568;13.266;2022-12-26T09:06:14;12.80;98.90
4425;DHT22;2225;53.568;13.266;2022-12-26T09:08:41;12.80;98.90
4425;DHT22;2225;53.568;13.266;2022-12-26T09:11:14;12.80;99.00
4425;DHT22;2225;53.568;13.266;2022-12-26T09:13:44;12.90;99.00
4425;DHT22;2225;53.568;13.266;2022-12-26T09:16:15;12.90;98.90
4425;DHT22;2225;53.568;13.266;2022-12-26T09:18:46;12.90;98.90
4425;DHT22;2225;53.568;13.266;2022-12-26T09:21:14;12.90;98.90
4425;DHT22;2225;53.568;13.266;2022-12-26T09:23:42;13.00;98.90
4425;DHT22;2225;53.568;13.266;2022-12-26T09:26:13;13.00;98.90
4425;DHT22;2225;53.568;13.266;2022-12-26T09:28:41;13.00;99.00
4425;DHT22;2225;53.568;13.266;2022-12-26T09:31:12;13.10;99.00
4425;DHT22;2225;53.568;13.266;2022-12-26T09:33:40;13.00;99.00
4425;DHT22;2225;53.568;13.266;2022-12-26T09:36:10;13.10;98.90
4425;DHT22;2225;53.568;13.266;2022-12-26T09:38:41;13.10;98.80
4425;DHT22;2225;53.568;13.266;2022-12-26T09:47:29;13.20;98.80
4425;DHT22;2225;53.568;13.266;2022-12-26T09:50:10;13.20;98.70
4425;DHT22;2225;53.568;13.266;2022-12-26T09:52:47;13.20;98.70
4425;DHT22;2225;53.568;13.266;2022-12-26T09:55:28;13.20;98.70
4425;DHT22;2225;53.568;13.266;2022-12-26T10:01:12;13.20;98.60
4425;DHT22;2225;53.568;13.266;2022-12-26T10:03:50;13.20;98.60
4425;DHT22;2225;53.568;13.266;2022-12-26T10:06:21;13.20;98.60
4425;DHT22;2225;53.568;13.266;2022-12-26T10:11:59;13.20;98.40
4425;DHT22;2225;53.568;13.266;2022-12-26T10:23:41;13.30;98.40
4425;DHT22;2225;53.568;13.266;2022-12-26T10:26:22;13.20;98.30
4425;DHT22;2225;53.568;13.266;2022-12-26T10:28:58;13.30;98.30
4425;DHT22;2225;53.568;13.266;2022-12-26T10:31:39;13.30;98.30
4425;DHT22;2225;53.568;13.266;2022-12-26T10:34:16;13.30;98.20
4425;DHT22;2225;53.568;13.266;2022-12-26T10:36:59;13.30;98.10
4425;DHT22;2225;53.568;13.266;2022-12-26T10:39:38;13.30;98.10
4425;DHT22;2225;53.568;13.266;2022-12-26T10:42:38;13.40;98.00
4425;DHT22;2225;53.568;13.266;2022-12-26T10:45:19;13.30;97.90
4425;DHT22;2225;53.568;13.266;2022-12-26T10:48:12;13.30;98.10
4425;DHT22;2225;53.568;13.266;2022-12-26T10:50:45;13.30;98.10
4425;DHT22;2225;53.568;13.266;2022-12-26T10:53:15;13.30;98.10
4425;DHT22;2225;53.568;13.266;2022-12-26T10:55:42;13.30;98.10
4425;DHT22;2225;53.568;13.266;2022-12-26T10:58:27;13.30;98.20
4425;DHT22;2225;53.568;13.266;2022-12-26T11:04:02;13.30;98.20
4425;DHT22;2225;53.568;13.266;2022-12-26T11:06:37;13.40;98.20
4425;DHT22;2225;53.568;13.266;2022-12-26T11:09:06;13.40;98.10
4425;DHT22;2225;53.568;13.266;2022-12-26T11:11:35;13.40;98.10
4425;DHT22;2225;53.568;13.266;2022-12-26T11:14:44;13.40;98.00
4425;DHT22;2225;53.568;13.266;2022-12-26T11:17:13;13.40;97.80
4425;DHT22;2225;53.568;13.266;2022-12-26T11:22:42;13.40;97.70
4425;DHT22;2225;53.568;13.266;2022-12-26T11:25:14;13.40;97.80
4425;DHT22;2225;53.568;13.266;2022-12-26T11:27:46;13.40;97.70
4425;DHT22;2225;53.568;13.266;2022-12-26T11:30:19;13.40;97.70
4425;DHT22;2225;53.568;13.266;2022-12-26T11:33:03;13.40;97.80
4425;DHT22;2225;53.568;13.266;2022-12-26T11:38:59;13.40;97.70
4425;DHT22;2225;53.568;13.266;2022-12-26T11:46:40;13.40;97.50
4425;DHT22;2225;53.568;13.266;2022-12-26T11:51:48;13.50;97.40
4425;DHT22;2225;53.568;13.266;2022-12-26T11:54:34;13.50;97.40
4425;DHT22;2225;53.568;13.266;2022-12-26T11:57:18;13.50;97.40
4425;DHT22;2225;53.568;13.266;2022-12-26T11:59:54;13.50;97.10
4425;DHT22;2225;53.568;13.266;2022-12-26T12:02:40;13.50;97.50
4425;DHT22;2225;53.568;13.266;2022-12-26T12:11:19;13.50;97.00
4425;DHT22;2225;53.568;13.266;2022-12-26T12:14:03;13.60;97.50
4425;DHT22;2225;53.568;13.266;2022-12-26T12:16:46;13.50;97.00
4425;DHT22;2225;53.568;13.266;2022-12-26T12:19:52;13.50;97.00
4425;DHT22;2225;53.568;13.266;2022-12-26T12:22:48;13.50;97.10
4425;DHT22;2225;53.568;13.266;2022-12-26T12:25:54;13.50;97.00
4425;DHT22;2225;53.568;13.266;2022-12-26T12:29:02;13.50;97.00
4425;DHT22;2225;53.568;13.266;2022-12-26T12:34:59;13.50;97.00
4425;DHT22;2225;53.568;13.266;2022-12-26T12:38:00;13.50;97.10
4425;DHT22;2225;53.568;13.266;2022-12-26T12:43:44;13.60;97.10
4425;DHT22;2225;53.568;13.266;2022-12-26T12:46:44;13.60;97.10
4425;DHT22;2225;53.568;13.266;2022-12-26T12:52:39;13.60;96.90
4425;DHT22;2225;53.568;13.266;2022-12-26T12:58:48;13.60;96.80
4425;DHT22;2225;53.568;13.266;2022-12-26T13:01:46;13.70;96.80
4425;DHT22;2225;53.568;13.266;2022-12-26T13:04:37;13.70;96.80
4425;DHT22;2225;53.568;13.266;2022-12-26T13:07:27;13.70;96.70
4425;DHT22;2225;53.568;13.266;2022-12-26T13:10:02;13.70;96.80
4425;DHT22;2225;53.568;13.266;2022-12-26T13:12:34;13.60;96.80
4425;DHT22;2225;53.568;13.266;2022-12-26T13:15:24;13.60;96.70
4425;DHT22;2225;53.568;13.266;2022-12-26T13:18:14;13.60;96.70
4425;DHT22;2225;53.568;13.266;2022-12-26T13:20:47;13.70;96.70
4425;DHT22;2225;53.568;13.266;2022-12-26T13:23:41;13.70;96.70
4425;DHT22;2225;53.568;13.266;2022-12-26T13:26:33;13.70;96.60
4425;DHT22;2225;53.568;13.266;2022-12-26T13:29:13;13.70;96.50
4425;DHT22;2225;53.568;13.266;2022-12-26T13:31:44;13.70;96.60
4425;DHT22;2225;53.568;13.266;2022-12-26T13:34:16;13.60;96.60
4425;DHT22;2225;53.568;13.266;2022-12-26T13:36:47;13.60;96.70
4425;DHT22;2225;53.568;13.266;2022-12-26T13:44:38;13.60;96.70
4425;DHT22;2225;53.568;13.266;2022-12-26T13:47:07;13.60;96.60
4425;DHT22;2225;53.568;13.266;2022-12-26T13:55:57;13.70;96.60
4425;DHT22;2225;53.568;13.266;2022-12-26T13:59:15;13.70;96.60
4425;DHT22;2225;53.568;13.266;2022-12-26T14:05:43;13.70;96.40
4425;DHT22;2225;53.568;13.266;2022-12-26T14:08:43;13.70;96.50
4425;DHT22;2225;53.568;13.266;2022-12-26T14:14:16;13.70;96.50
4425;DHT22;2225;53.568;13.266;2022-12-26T14:17:17;13.70;96.40
4425;DHT22;2225;53.568;13.266;2022-12-26T14:20:23;13.80;96.30
4425;DHT22;2225;53.568;13.266;2022-12-26T14:29:23;13.80;96.30
4425;DHT22;2225;53.568;13.266;2022-12-26T14:35:10;13.80;96.40
4425;DHT22;2225;53.568;13.266;2022-12-26T14:38:04;13.80;96.30
4425;DHT22;2225;53.568;13.266;2022-12-26T14:41:01;13.80;96.30
4425;DHT22;2225;53.568;13.266;2022-12-26T14:43:32;13.80;96.10
4425;DHT22;2225;53.568;13.266;2022-12-26T14:46:04;13.80;96.20
4425;DHT22;2225;53.568;13.266;2022-12-26T14:48:54;13.80;96.30
4425;DHT22;2225;53.568;13.266;2022-12-26T14:51:30;13.80;96.50
4425;DHT22;2225;53.568;13.266;2022-12-26T14:56:50;13.80;95.90
4425;DHT22;2225;53.568;13.266;2022-12-26T14:59:33;13.80;96.00
4425;DHT22;2225;53.568;13.266;2022-12-26T15:04:59;13.80;96.10
4425;DHT22;2225;53.568;13.266;2022-12-26T15:13:58;13.80;96.00
4425;DHT22;2225;53.568;13.266;2022-12-26T15:20:15;13.80;96.00
4425;DHT22;2225;53.568;13.266;2022-12-26T15:23:15;13.70;96.00
4425;DHT22;2225;53.568;13.266;2022-12-26T15:32:22;13.60;96.50
4425;DHT22;2225;53.568;13.266;2022-12-26T15:35:30;13.50;96.60
4425;DHT22;2225;53.568;13.266;2022-12-26T15:38:10;13.50;96.70
4425;DHT22;2225;53.568;13.266;2022-12-26T15:41:12;13.50;96.70
4425;DHT22;2225;53.568;13.266;2022-12-26T15:43:56;13.50;96.60
4425;DHT22;2225;53.568;13.266;2022-12-26T15:50:08;13.40;96.40
4425;DHT22;2225;53.568;13.266;2022-12-26T15:55:43;13.30;96.20
4425;DHT22;2225;53.568;13.266;2022-12-26T15:58:51;13.30;96.20
4425;DHT22;2225;53.568;13.266;2022-12-26T16:01:45;13.20;95.80
4425;DHT22;2225;53.568;13.266;2022-12-26T16:04:27;13.20;96.00
4425;DHT22;2225;53.568;13.266;2022-12-26T16:07:28;13.20;96.00
4425;DHT22;2225;53.568;13.266;2022-12-26T16:10:01;13.10;96.00
4425;DHT22;2225;53.568;13.266;2022-12-26T16:12:33;13.10;95.90
4425;DHT22;2225;53.568;13.266;2022-12-26T16:17:37;13.10;96.00
4425;DHT22;2225;53.568;13.266;2022-12-26T16:23:21;13.00;95.70
4425;DHT22;2225;53.568;13.266;2022-12-26T16:25:52;13.00;95.70
4425;DHT22;2225;53.568;13.266;2022-12-26T16:28:34;13.00;95.80
4425;DHT22;2225;53.568;13.266;2022-12-26T16:31:04;13.00;95.70
4425;DHT22;2225;53.568;13.266;2022-12-26T16:33:37;13.00;96.10
4425;DHT22;2225;53.568;13.266;2022-12-26T16:36:08;12.90;95.70
4425;DHT22;2225;53.568;13.266;2022-12-26T16:38:38;12.90;95.60
4425;DHT22;2225;53.568;13.266;2022-12-26T16:41:20;12.90;95.50
4425;DHT22;2225;53.568;13.266;2022-12-26T16:43:50;12.90;95.40
4425;DHT22;2225;53.568;13.266;2022-12-26T16:46:22;12.80;95.50
4425;DHT22;2225;53.568;13.266;2022-12-26T16:48:57;12.80;95.40
4425;DHT22;2225;53.568;13.266;2022-12-26T16:54:15;12.80;95.30
4425;DHT22;2225;53.568;13.266;2022-12-26T16:56:48;12.80;95.40
4425;DHT22;2225;53.568;13.266;2022-12-26T16:59:18;12.70;95.40
4425;DHT22;2225;53.568;13.266;2022-12-26T17:01:54;12.70;95.50
4425;DHT22;2225;53.568;13.266;2022-12-26T17:04:26;12.60;95.20
4425;DHT22;2225;53.568;13.266;2022-12-26T17:06:56;12.60;94.90
4425;DHT22;2225;53.568;13.266;2022-12-26T17:09:29;12.60;94.80
4425;DHT22;2225;53.568;13.266;2022-12-26T17:12:07;12.50;94.50
4425;DHT22;2225;53.568;13.266;2022-12-26T17:14:51;12.50;94.10
4425;DHT22;2225;53.568;13.266;2022-12-26T17:19:50;12.40;92.70
4425;DHT22;2225;53.568;13.266;2022-12-26T17:22:36;12.40;92.70
4425;DHT22;2225;53.568;13.266;2022-12-26T17:25:28;12.40;92.00
4425;DHT22;2225;53.568;13.266;2022-12-26T17:30:40;12.20;92.10
4425;DHT22;2225;53.568;13.266;2022-12-26T17:33:13;12.20;92.20
4425;DHT22;2225;53.568;13.266;2022-12-26T17:35:50;12.10;92.10
4425;DHT22;2225;53.568;13.266;2022-12-26T17:38:50;12.00;92.20
4425;DHT22;2225;53.568;13.266;2022-12-26T17:41:17;12.00;92.20
4425;DHT22;2225;53.568;13.266;2022-12-26T17:43:45;11.90;92.20
4425;DHT22;2225;53.568;13.266;2022-12-26T17:46:14;11.80;92.40
4425;DHT22;2225;53.568;13.266;2022-12-26T17:48:43;11.70;92.50
4425;DHT22;2225;53.568;13.266;2022-12-26T17:51:16;11.70;92.60
4425;DHT22;2225;53.568;13.266;2022-12-26T17:53:50;11.60;92.90
4425;DHT22;2225;53.568;13.266;2022-12-26T17:56:19;11.60;93.00
4425;DHT22;2225;53.568;13.266;2022-12-26T17:58:48;11.50;93.10
4425;DHT22;2225;53.568;13.266;2022-12-26T18:01:16;11.50;93.30
4425;DHT22;2225;53.568;13.266;2022-12-26T18:03:48;11.50;93.50
4425;DHT22;2225;53.568;13.266;2022-12-26T18:06:15;11.40;93.60
4425;DHT22;2225;53.568;13.266;2022-12-26T18:08:43;11.40;92.40
4425;DHT22;2225;53.568;13.266;2022-12-26T18:11:12;11.30;91.60
4425;DHT22;2225;53.568;13.266;2022-12-26T18:13:39;11.20;90.50
4425;DHT22;2225;53.568;13.266;2022-12-26T18:16:09;11.10;90.30
4425;DHT22;2225;53.568;13.266;2022-12-26T18:18:42;11.00;90.50
4425;DHT22;2225;53.568;13.266;2022-12-26T18:21:12;11.00;90.50
4425;DHT22;2225;53.568;13.266;2022-12-26T18:23:40;11.00;90.40
4425;DHT22;2225;53.568;13.266;2022-12-26T18:26:19;10.90;88.60
4425;DHT22;2225;53.568;13.266;2022-12-26T18:28:50;10.90;88.70
4425;DHT22;2225;53.568;13.266;2022-12-26T18:31:17;10.80;88.10
4425;DHT22;2225;53.568;13.266;2022-12-26T18:33:44;10.70;87.40
4425;DHT22;2225;53.568;13.266;2022-12-26T18:36:12;10.70;87.10
4425;DHT22;2225;53.568;13.266;2022-12-26T18:38:40;10.60;88.30
4425;DHT22;2225;53.568;13.266;2022-12-26T18:41:16;10.50;87.80
4425;DHT22;2225;53.568;13.266;2022-12-26T18:43:44;10.50;87.10
4425;DHT22;2225;53.568;13.266;2022-12-26T18:46:15;10.40;88.20
4425;DHT22;2225;53.568;13.266;2022-12-26T18:48:50;10.30;88.00
4425;DHT22;2225;53.568;13.266;2022-12-26T18:51:20;10.20;88.30
4425;DHT22;2225;53.568;13.266;2022-12-26T18:53:47;10.20;88.70
4425;DHT22;2225;53.568;13.266;2022-12-26T18:56:16;10.10;88.40
4425;DHT22;2225;53.568;13.266;2022-12-26T18:58:45;10.10;88.90
4425;DHT22;2225;53.568;13.266;2022-12-26T19:01:19;10.10;89.10
4425;DHT22;2225;53.568;13.266;2022-12-26T19:03:46;10.00;89.20
4425;DHT22;2225;53.568;13.266;2022-12-26T19:06:22;10.00;89.20
4425;DHT22;2225;53.568;13.266;2022-12-26T19:08:51;9.90;89.30
4425;DHT22;2225;53.568;13.266;2022-12-26T19:11:18;10.00;90.00
4425;DHT22;2225;53.568;13.266;2022-12-26T19:13:45;9.80;90.00
4425;DHT22;2225;53.568;13.266;2022-12-26T19:16:12;9.80;90.10
4425;DHT22;2225;53.568;13.266;2022-12-26T19:18:39;9.80;90.30
4425;DHT22;2225;53.568;13.266;2022-12-26T19:21:13;9.80;90.30
4425;DHT22;2225;53.568;13.266;2022-12-26T19:23:41;9.80;90.50
4425;DHT22;2225;53.568;13.266;2022-12-26T19:26:14;9.80;90.60
4425;DHT22;2225;53.568;13.266;2022-12-26T19:28:41;9.80;90.70